Time;durP1;ratioP1;P1;durP2;ratioP2;P2;SDS_P1;SDS_P2;PMS_P1;PMS_P2;Temp;Humidity;BMP_temperature;BMP_pressure;BME280_temperature;BME280_humidity;BME280_pressure;Samples;Min_cycle;Max_cycle;Signal;HPM_P1;HPM_P2
2021/10/31 00:00:48;;;;;;;0.10;0.10;;;;;;;;;;5039429;28;20044;-84
2021/10/31 00:03:16;;;;;;;0.40;0.40;;;;;;;;;;5039587;28;20037;-84
2021/10/31 00:05:43;;;;;;;0.22;0.22;;;;;;;;;;5040511;28;20064;-84
2021/10/31 00:08:09;;;;;;;0.30;0.30;;;;;;;;;;5039998;28;20066;-83
2021/10/31 00:10:35;;;;;;;1.38;1.05;;;;;;;;;;5043563;28;20758;-84
2021/10/31 00:13:01;;;;;;;0.10;0.10;;;;;;;;;;5044030;28;20426;-84
2021/10/31 00:15:27;;;;;;;0.17;0.17;;;;;;;;;;5041211;28;20082;-84
2021/10/31 00:17:54;;;;;;;0.45;0.45;;;;;;;;;;5042153;28;20050;-83
2021/10/31 00:20:20;;;;;;;0.40;0.40;;;;;;;;;;5040457;28;20112;-84
2021/10/31 00:22:47;;;;;;;0.37;0.17;;;;;;;;;;5043063;28;20032;-84
2021/10/31 00:25:13;;;;;;;0.13;0.13;;;;;;;;;;5042374;28;20351;-84
2021/10/31 00:27:40;;;;;;;0.30;0.30;;;;;;;;;;5040512;28;20397;-83
2021/10/31 00:30:06;;;;;;;0.52;0.52;;;;;;;;;;5041500;28;20104;-87
2021/10/31 00:32:33;;;;;;;0.20;0.20;;;;;;;;;;5040643;28;20051;-87
2021/10/31 00:34:59;;;;;;;7.95;1.23;;;;;;;;;;5041141;28;20039;-87
2021/10/31 00:37:25;;;;;;;0.10;0.10;;;;;;;;;;5042445;28;20024;-87
2021/10/31 00:39:51;;;;;;;0.17;0.17;;;;;;;;;;5040315;28;20825;-88
2021/10/31 00:42:17;;;;;;;0.30;0.30;;;;;;;;;;5039671;28;20555;-88
2021/10/31 00:44:43;;;;;;;0.10;0.10;;;;;;;;;;5041084;28;20039;-86
2021/10/31 00:47:09;;;;;;;0.10;0.10;;;;;;;;;;5041754;28;20131;-87
2021/10/31 00:49:36;;;;;;;0.00;0.00;;;;;;;;;;5043438;28;20040;-86
2021/10/31 00:52:02;;;;;;;0.20;0.20;;;;;;;;;;5041488;28;20045;-86
2021/10/31 00:54:29;;;;;;;0.20;0.20;;;;;;;;;;5040843;28;20075;-87
2021/10/31 00:56:55;;;;;;;0.10;0.10;;;;;;;;;;5041110;28;20037;-86
2021/10/31 00:59:21;;;;;;;0.30;0.30;;;;;;;;;;5038844;28;20033;-87
2021/10/31 01:01:49;;;;;;;0.20;0.15;;;;;;;;;;5039424;28;20056;-86
2021/10/31 01:04:19;;;;;;;0.10;0.10;;;;;;;;;;5041649;28;20547;-86
2021/10/31 01:06:58;;;;;;;12.50;1.75;;;;;;;;;;5039600;28;20037;-87
2021/10/31 01:09:31;;;;;;;0.00;0.00;;;;;;;;;;5040375;28;20025;-86
2021/10/31 01:12:03;;;;;;;0.10;0.10;;;;;;;;;;5040866;28;20033;-86
2021/10/31 01:14:49;;;;;;;0.13;0.13;;;;;;;;;;5041532;28;20421;-86
2021/10/31 01:17:18;;;;;;;0.03;0.03;;;;;;;;;;5039558;28;20071;-86
2021/10/31 01:20:08;;;;;;;0.28;0.28;;;;;;;;;;5037854;28;20067;-85
2021/10/31 01:22:50;;;;;;;0.32;0.32;;;;;;;;;;5041070;28;20029;-85
2021/10/31 01:25:35;;;;;;;0.10;0.10;;;;;;;;;;5041219;28;20083;-85
2021/10/31 01:28:09;;;;;;;0.10;0.10;;;;;;;;;;5040609;28;20028;-86
2021/10/31 01:30:35;;;;;;;0.10;0.10;;;;;;;;;;5041791;28;20883;-86
2021/10/31 01:33:10;;;;;;;0.20;0.20;;;;;;;;;;5040819;28;20028;-86
2021/10/31 01:35:55;;;;;;;0.03;0.03;;;;;;;;;;5055510;28;20080;-86
2021/10/31 01:38:24;;;;;;;0.00;0.00;;;;;;;;;;5040784;28;20025;-86
2021/10/31 01:40:56;;;;;;;0.10;0.10;;;;;;;;;;5039751;28;20063;-86
2021/10/31 01:43:41;;;;;;;0.20;0.20;;;;;;;;;;5058097;28;20029;-86
2021/10/31 01:46:07;;;;;;;0.15;0.15;;;;;;;;;;5042404;28;20047;-86
2021/10/31 01:48:34;;;;;;;0.10;0.10;;;;;;;;;;5040936;28;20172;-86
2021/10/31 01:51:00;;;;;;;;;;;;;;;;;;5040331;28;20519;-83
2021/10/31 01:53:29;;;;;;;0.13;0.13;;;;;;;;;;5041281;28;20003;-88
2021/10/31 01:55:58;;;;;;;0.00;0.00;;;;;;;;;;5041550;28;20582;-87
2021/10/31 01:58:25;;;;;;;0.20;0.20;;;;;;;;;;5043069;28;20025;-88
2021/10/31 02:00:52;;;;;;;0.17;0.17;;;;;;;;;;5041999;28;20029;-89
2021/10/31 02:03:19;;;;;;;0.10;0.10;;;;;;;;;;5040159;28;20041;-88
2021/10/31 02:05:47;;;;;;;1.10;0.57;;;;;;;;;;5041601;28;20127;-88
2021/10/31 02:08:13;;;;;;;0.20;0.20;;;;;;;;;;5040624;28;20029;-89
2021/10/31 02:10:40;;;;;;;0.10;0.10;;;;;;;;;;5040806;28;20379;-87
2021/10/31 02:13:06;;;;;;;0.10;0.10;;;;;;;;;;5039933;28;20045;-86
2021/10/31 02:15:33;;;;;;;0.22;0.22;;;;;;;;;;5043512;28;20025;-85
2021/10/31 02:18:00;;;;;;;0.30;0.30;;;;;;;;;;5043646;28;20120;-85
2021/10/31 02:20:26;;;;;;;;;;;;;;;;;;5044840;28;20033;-86
2021/10/31 02:22:52;;;;;;;0.00;0.00;;;;;;;;;;5045205;28;20352;-85
2021/10/31 02:25:19;;;;;;;0.10;0.10;;;;;;;;;;5045118;28;20036;-84
2021/10/31 02:27:45;;;;;;;1.35;0.43;;;;;;;;;;5044018;28;20106;-84
2021/10/31 02:30:11;;;;;;;7.88;1.45;;;;;;;;;;5043732;28;20033;-84
2021/10/31 02:32:37;;;;;;;0.10;0.10;;;;;;;;;;5044187;28;20126;-84
2021/10/31 02:35:06;;;;;;;0.10;0.10;;;;;;;;;;5044532;28;20037;-85
2021/10/31 02:37:32;;;;;;;0.10;0.10;;;;;;;;;;5044929;28;20048;-84
2021/10/31 02:39:58;;;;;;;0.10;0.10;;;;;;;;;;5041424;28;20033;-85
2021/10/31 02:42:24;;;;;;;0.20;0.20;;;;;;;;;;5040520;28;20072;-84
2021/10/31 02:44:50;;;;;;;0.10;0.10;;;;;;;;;;5044958;28;20040;-84
2021/10/31 02:47:46;;;;;;;0.30;0.27;;;;;;;;;;5043901;28;20049;-84
2021/10/31 02:50:14;;;;;;;0.10;0.10;;;;;;;;;;5038911;28;20032;-84
2021/10/31 02:52:52;;;;;;;0.13;0.13;;;;;;;;;;5043850;28;20110;-85
2021/10/31 02:55:32;;;;;;;0.88;0.85;;;;;;;;;;5044608;28;20029;-84
2021/10/31 02:58:02;;;;;;;0.20;0.20;;;;;;;;;;5043569;28;20051;-85
2021/10/31 03:00:29;;;;;;;0.20;0.20;;;;;;;;;;5043296;28;20052;-84
2021/10/31 03:02:56;;;;;;;3.85;0.30;;;;;;;;;;5043453;28;20075;-84
2021/10/31 03:05:22;;;;;;;0.05;0.05;;;;;;;;;;5044055;28;20029;-86
2021/10/31 03:07:48;;;;;;;0.30;0.30;;;;;;;;;;5043248;28;20029;-85
2021/10/31 03:10:16;;;;;;;0.20;0.20;;;;;;;;;;5042562;28;20029;-86
2021/10/31 03:12:42;;;;;;;0.20;0.20;;;;;;;;;;5043632;28;20083;-86
2021/10/31 03:15:08;;;;;;;0.17;0.17;;;;;;;;;;5043400;28;20021;-86
2021/10/31 03:17:34;;;;;;;0.22;0.20;;;;;;;;;;5042396;28;20446;-87
2021/10/31 03:20:02;;;;;;;0.10;0.10;;;;;;;;;;5044044;28;20086;-86
2021/10/31 03:22:28;;;;;;;0.10;0.10;;;;;;;;;;5044186;28;20043;-85
2021/10/31 03:24:54;;;;;;;0.10;0.10;;;;;;;;;;5042507;28;20575;-85
2021/10/31 03:27:20;;;;;;;2.03;0.33;;;;;;;;;;5044138;28;20483;-86
2021/10/31 03:29:46;;;;;;;0.87;0.70;;;;;;;;;;5044073;28;20094;-86
2021/10/31 03:32:12;;;;;;;0.10;0.10;;;;;;;;;;5043510;28;20045;-87
2021/10/31 03:34:38;;;;;;;0.10;0.10;;;;;;;;;;5060000;28;20033;-88
2021/10/31 03:37:05;;;;;;;0.10;0.10;;;;;;;;;;5044494;28;20043;-85
2021/10/31 03:39:31;;;;;;;0.00;0.00;;;;;;;;;;5040597;28;20057;-85
2021/10/31 03:41:57;;;;;;;0.10;0.10;;;;;;;;;;5043834;28;20029;-86
2021/10/31 03:44:23;;;;;;;0.00;0.00;;;;;;;;;;5044143;28;20529;-87
2021/10/31 03:46:50;;;;;;;0.10;0.10;;;;;;;;;;5059748;28;20364;-89
2021/10/31 03:49:16;;;;;;;0.10;0.10;;;;;;;;;;5042703;28;20087;-89
2021/10/31 03:51:42;;;;;;;0.10;0.10;;;;;;;;;;5045082;28;20507;-87
2021/10/31 03:54:09;;;;;;;0.10;0.10;;;;;;;;;;5062585;28;20082;-87
2021/10/31 03:56:35;;;;;;;0.10;0.10;;;;;;;;;;5046377;28;20021;-87
2021/10/31 03:59:01;;;;;;;0.10;0.10;;;;;;;;;;5045901;28;20590;-86
2021/10/31 04:01:29;;;;;;;0.30;0.20;;;;;;;;;;5042834;28;20108;-85
2021/10/31 04:03:55;;;;;;;0.00;0.00;;;;;;;;;;5041629;28;20056;-86
2021/10/31 04:06:21;;;;;;;0.00;0.00;;;;;;;;;;5041857;28;20029;-85
2021/10/31 04:08:47;;;;;;;0.10;0.10;;;;;;;;;;5040269;28;20902;-87
2021/10/31 04:11:13;;;;;;;0.13;0.13;;;;;;;;;;5045034;28;20055;-87
2021/10/31 04:13:39;;;;;;;0.00;0.00;;;;;;;;;;5062277;28;20044;-87
2021/10/31 04:16:05;;;;;;;0.00;0.00;;;;;;;;;;5047111;28;20033;-86
2021/10/31 04:18:31;;;;;;;0.00;0.00;;;;;;;;;;5041964;28;20126;-86
2021/10/31 04:20:57;;;;;;;0.08;0.08;;;;;;;;;;5044603;28;20275;-88
2021/10/31 04:23:24;;;;;;;0.00;0.00;;;;;;;;;;5041655;28;20492;-88
2021/10/31 04:25:50;;;;;;;0.00;0.00;;;;;;;;;;5043358;28;20272;-88
2021/10/31 04:28:17;;;;;;;0.00;0.00;;;;;;;;;;5043260;28;20044;-88
2021/10/31 04:30:43;;;;;;;0.00;0.00;;;;;;;;;;5040601;28;20370;-88
2021/10/31 04:33:09;;;;;;;0.00;0.00;;;;;;;;;;5042859;28;20041;-88
2021/10/31 04:35:35;;;;;;;0.10;0.10;;;;;;;;;;5038928;28;20745;-87
2021/10/31 04:38:18;;;;;;;0.10;0.10;;;;;;;;;;5040513;28;20041;-89
2021/10/31 04:40:44;;;;;;;0.10;0.10;;;;;;;;;;5039903;28;20110;-86
2021/10/31 04:43:11;;;;;;;0.00;0.00;;;;;;;;;;5056439;28;20028;-86
2021/10/31 04:45:38;;;;;;;0.00;0.00;;;;;;;;;;5040898;28;20291;-86
2021/10/31 04:48:04;;;;;;;0.10;0.10;;;;;;;;;;5054262;28;20068;-87
2021/10/31 04:50:30;;;;;;;0.00;0.00;;;;;;;;;;5038589;28;20045;-87
2021/10/31 04:52:57;;;;;;;0.00;0.00;;;;;;;;;;5041424;28;20033;-87
2021/10/31 04:55:23;;;;;;;0.08;0.08;;;;;;;;;;5041604;28;20025;-91
2021/10/31 04:57:49;;;;;;;0.17;0.17;;;;;;;;;;5060561;28;20124;-90
2021/10/31 05:00:15;;;;;;;0.10;0.10;;;;;;;;;;5043366;28;20055;-88
2021/10/31 05:02:42;;;;;;;0.00;0.00;;;;;;;;;;5057879;28;20044;-84
2021/10/31 05:05:08;;;;;;;0.10;0.10;;;;;;;;;;5042243;28;20067;-85
2021/10/31 05:07:34;;;;;;;0.05;0.05;;;;;;;;;;5042719;28;20132;-86
2021/10/31 05:10:00;;;;;;;0.10;0.10;;;;;;;;;;5042739;28;20071;-91
2021/10/31 05:12:27;;;;;;;0.25;0.25;;;;;;;;;;5044522;28;20295;-89
2021/10/31 05:14:53;;;;;;;0.00;0.00;;;;;;;;;;5043314;28;20032;-89
2021/10/31 05:17:19;;;;;;;0.00;0.00;;;;;;;;;;5045643;28;20029;-91
2021/10/31 05:19:45;;;;;;;0.00;0.00;;;;;;;;;;5045409;28;20153;-89
2021/10/31 05:22:12;;;;;;;0.00;0.00;;;;;;;;;;5061000;28;20029;-89
2021/10/31 05:24:38;;;;;;;0.00;0.00;;;;;;;;;;5042800;28;20035;-85
2021/10/31 05:27:04;;;;;;;0.10;0.10;;;;;;;;;;5048772;28;20082;-92
2021/10/31 05:29:30;;;;;;;0.00;0.00;;;;;;;;;;5043976;28;20021;-92
2021/10/31 05:31:56;;;;;;;0.00;0.00;;;;;;;;;;5041541;28;20111;-86
2021/10/31 05:34:22;;;;;;;0.10;0.10;;;;;;;;;;5041927;28;20059;-83
2021/10/31 05:36:48;;;;;;;0.00;0.00;;;;;;;;;;5040236;28;20855;-83
2021/10/31 05:39:14;;;;;;;0.10;0.10;;;;;;;;;;5040770;28;20112;-83
2021/10/31 05:41:40;;;;;;;0.20;0.20;;;;;;;;;;5039538;28;20291;-84
2021/10/31 05:44:06;;;;;;;0.00;0.00;;;;;;;;;;5042023;28;20543;-82
2021/10/31 05:46:33;;;;;;;0.33;0.20;;;;;;;;;;5040611;28;20544;-83
2021/10/31 05:49:00;;;;;;;0.00;0.00;;;;;;;;;;5038477;28;20068;-83
2021/10/31 05:51:25;;;;;;;;;;;;;;;;;;5038664;28;20114;-84
2021/10/31 05:53:51;;;;;;;0.00;0.00;;;;;;;;;;5038976;28;19916;-84
2021/10/31 05:56:18;;;;;;;0.10;0.10;;;;;;;;;;5039960;28;20040;-85
2021/10/31 05:58:44;;;;;;;0.03;0.03;;;;;;;;;;5040770;28;20033;-84
2021/10/31 06:01:10;;;;;;;0.10;0.10;;;;;;;;;;5041017;28;20035;-82
2021/10/31 06:03:36;;;;;;;0.00;0.00;;;;;;;;;;5041706;28;20333;-85
2021/10/31 06:06:02;;;;;;;0.10;0.10;;;;;;;;;;5041856;28;20062;-86
2021/10/31 06:08:28;;;;;;;0.00;0.00;;;;;;;;;;5040476;28;20942;-87
2021/10/31 06:10:54;;;;;;;0.10;0.10;;;;;;;;;;5041485;28;20040;-85
2021/10/31 06:13:21;;;;;;;0.00;0.00;;;;;;;;;;5041143;28;20073;-86
2021/10/31 06:15:47;;;;;;;0.00;0.00;;;;;;;;;;5056561;28;20028;-86
2021/10/31 06:18:18;;;;;;;0.63;0.57;;;;;;;;;;5040338;28;20500;-87
2021/10/31 06:20:44;;;;;;;0.10;0.10;;;;;;;;;;5041484;28;20041;-85
2021/10/31 06:23:11;;;;;;;15.68;0.57;;;;;;;;;;5039601;28;20120;-87
2021/10/31 06:25:37;;;;;;;0.10;0.10;;;;;;;;;;5040874;28;20407;-87
2021/10/31 06:28:03;;;;;;;0.30;0.30;;;;;;;;;;5041021;28;20515;-84
2021/10/31 06:30:29;;;;;;;0.03;0.03;;;;;;;;;;5057301;28;20025;-84
2021/10/31 06:32:55;;;;;;;0.00;0.00;;;;;;;;;;5042600;28;20175;-87
2021/10/31 06:35:21;;;;;;;0.13;0.13;;;;;;;;;;5043476;28;20272;-85
2021/10/31 06:37:49;;;;;;;0.00;0.00;;;;;;;;;;5043420;28;20032;-90
2021/10/31 06:40:15;;;;;;;0.20;0.20;;;;;;;;;;5059442;28;20617;-89
2021/10/31 06:42:41;;;;;;;0.20;0.20;;;;;;;;;;5043269;28;20032;-89
2021/10/31 06:45:08;;;;;;;0.10;0.10;;;;;;;;;;5039426;28;20036;-84
2021/10/31 06:47:34;;;;;;;4.88;1.88;;;;;;;;;;5039377;28;20183;-89
2021/10/31 06:50:00;;;;;;;0.00;0.00;;;;;;;;;;5041092;28;20029;-88
2021/10/31 06:52:26;;;;;;;0.10;0.10;;;;;;;;;;5043737;28;20291;-88
2021/10/31 06:54:53;;;;;;;0.10;0.10;;;;;;;;;;5040175;28;20120;-87
2021/10/31 06:57:19;;;;;;;0.00;0.00;;;;;;;;;;5038955;28;20805;-87
2021/10/31 06:59:45;;;;;;;0.10;0.10;;;;;;;;;;5037949;28;20510;-88
2021/10/31 07:02:11;;;;;;;0.00;0.00;;;;;;;;;;5043001;28;20025;-87
2021/10/31 07:04:37;;;;;;;0.10;0.10;;;;;;;;;;5044669;28;20039;-87
2021/10/31 07:07:04;;;;;;;0.00;0.00;;;;;;;;;;5059723;28;20279;-88
2021/10/31 07:09:30;;;;;;;0.10;0.10;;;;;;;;;;5058127;28;20119;-87
2021/10/31 07:11:58;;;;;;;0.10;0.10;;;;;;;;;;5042770;28;20036;-87
2021/10/31 07:14:24;;;;;;;0.10;0.10;;;;;;;;;;5060337;28;20037;-86
2021/10/31 07:16:50;;;;;;;0.07;0.07;;;;;;;;;;5043461;28;20079;-86
2021/10/31 07:19:17;;;;;;;0.00;0.00;;;;;;;;;;5045190;28;20068;-87
2021/10/31 07:21:43;;;;;;;0.00;0.00;;;;;;;;;;5045238;28;20104;-87
2021/10/31 07:24:09;;;;;;;0.00;0.00;;;;;;;;;;5044614;28;20095;-87
2021/10/31 07:26:36;;;;;;;0.20;0.20;;;;;;;;;;5044571;28;20500;-88
2021/10/31 07:29:05;;;;;;;0.10;0.10;;;;;;;;;;5043754;28;20083;-87
2021/10/31 07:31:32;;;;;;;0.00;0.00;;;;;;;;;;5046605;28;20050;-90
2021/10/31 07:33:58;;;;;;;0.10;0.10;;;;;;;;;;5044846;28;20029;-88
2021/10/31 07:36:25;;;;;;;0.00;0.00;;;;;;;;;;5043667;28;20040;-89
2021/10/31 07:38:51;;;;;;;0.00;0.00;;;;;;;;;;5044196;28;20052;-89
2021/10/31 07:41:17;;;;;;;0.10;0.10;;;;;;;;;;5044747;28;20087;-88
2021/10/31 07:43:43;;;;;;;0.20;0.20;;;;;;;;;;5047522;28;20029;-89
2021/10/31 07:46:09;;;;;;;0.10;0.10;;;;;;;;;;5045007;28;20055;-85
2021/10/31 07:48:36;;;;;;;0.10;0.10;;;;;;;;;;5045793;28;20032;-90
2021/10/31 07:51:03;;;;;;;0.47;0.45;;;;;;;;;;5046201;28;20033;-90
2021/10/31 07:53:29;;;;;;;0.00;0.00;;;;;;;;;;5045578;28;20033;-89
2021/10/31 07:55:56;;;;;;;0.90;0.75;;;;;;;;;;5047853;28;20119;-89
2021/10/31 07:58:25;;;;;;;0.20;0.20;;;;;;;;;;5045661;28;20033;-90
2021/10/31 08:00:51;;;;;;;0.10;0.10;;;;;;;;;;5045816;28;20025;-89
2021/10/31 08:03:18;;;;;;;0.08;0.00;;;;;;;;;;5042449;28;20531;-89
2021/10/31 08:05:44;;;;;;;;;;;;;;;;;;5047884;28;20029;-90
2021/10/31 08:08:10;;;;;;;;;;;;;;;;;;5044577;28;19912;-90
2021/10/31 08:10:36;;;;;;;0.00;0.00;;;;;;;;;;5045613;28;19913;-90
2021/10/31 08:13:02;;;;;;;0.10;0.10;;;;;;;;;;5044965;28;20051;-89
2021/10/31 08:15:29;;;;;;;0.15;0.15;;;;;;;;;;5044291;28;20029;-90
2021/10/31 08:17:55;;;;;;;;;;;;;;;;;;5043039;28;20032;-90
2021/10/31 08:20:21;;;;;;;0.00;0.00;;;;;;;;;;5046231;28;19912;-89
2021/10/31 08:22:47;;;;;;;0.00;0.00;;;;;;;;;;5045628;28;20045;-89
2021/10/31 08:25:13;;;;;;;0.00;0.00;;;;;;;;;;5044486;28;20032;-89
2021/10/31 08:27:39;;;;;;;0.82;0.43;;;;;;;;;;5043424;28;20040;-88
2021/10/31 08:30:06;;;;;;;0.00;0.00;;;;;;;;;;5043305;28;20025;-88
2021/10/31 08:32:41;;;;;;;0.00;0.00;;;;;;;;;;5044924;28;20659;-90
2021/10/31 08:35:07;;;;;;;0.00;0.00;;;;;;;;;;5044319;28;20071;-90
2021/10/31 08:37:33;;;;;;;0.00;0.00;;;;;;;;;;5046357;28;20037;-88
2021/10/31 08:39:59;;;;;;;0.00;0.00;;;;;;;;;;5044487;28;20025;-89
2021/10/31 08:42:25;;;;;;;0.22;0.10;;;;;;;;;;5043201;28;20028;-85
2021/10/31 08:44:51;;;;;;;0.08;0.08;;;;;;;;;;5043043;28;20044;-87
2021/10/31 08:47:17;;;;;;;0.10;0.10;;;;;;;;;;5044118;28;20449;-89
2021/10/31 08:49:43;;;;;;;0.00;0.00;;;;;;;;;;5044105;28;20508;-86
2021/10/31 08:52:09;;;;;;;0.00;0.00;;;;;;;;;;5059007;28;20503;-87
2021/10/31 08:54:37;;;;;;;0.00;0.00;;;;;;;;;;5045705;28;20033;-91
2021/10/31 08:57:03;;;;;;;0.10;0.10;;;;;;;;;;5058442;28;20033;-87
2021/10/31 08:59:30;;;;;;;0.08;0.08;;;;;;;;;;5043459;28;20021;-89
2021/10/31 09:01:56;;;;;;;;;;;;;;;;;;5043305;28;20181;-86
2021/10/31 09:04:22;;;;;;;0.10;0.10;;;;;;;;;;5045234;28;20003;-86
2021/10/31 09:06:48;;;;;;;0.00;0.00;;;;;;;;;;5042563;28;20052;-90
2021/10/31 09:09:14;;;;;;;0.20;0.10;;;;;;;;;;5043239;28;20031;-90
2021/10/31 09:11:40;;;;;;;0.00;0.00;;;;;;;;;;5044805;28;20033;-92
2021/10/31 09:14:06;;;;;;;0.00;0.00;;;;;;;;;;5045028;28;20033;-91
2021/10/31 09:16:34;;;;;;;0.22;0.22;;;;;;;;;;5045277;28;20040;-90
2021/10/31 09:19:00;;;;;;;0.00;0.00;;;;;;;;;;5042261;28;20461;-88
2021/10/31 09:21:28;;;;;;;0.05;0.05;;;;;;;;;;5046821;28;20056;-91
2021/10/31 09:23:54;;;;;;;0.20;0.20;;;;;;;;;;5045640;28;20033;-89
2021/10/31 09:26:20;;;;;;;0.00;0.00;;;;;;;;;;5045305;28;20024;-90
2021/10/31 09:28:47;;;;;;;0.00;0.00;;;;;;;;;;5043410;28;20527;-90
2021/10/31 09:31:13;;;;;;;0.20;0.20;;;;;;;;;;5040252;28;20112;-88
2021/10/31 09:33:40;;;;;;;;;;;;;;;;;;5044117;28;20139;-88
2021/10/31 09:36:06;;;;;;;0.10;0.10;;;;;;;;;;5043638;28;19939;-90
2021/10/31 09:38:33;;;;;;;1.13;0.17;;;;;;;;;;5041616;28;20026;-89
2021/10/31 09:41:00;;;;;;;0.88;0.47;;;;;;;;;;5042705;28;20036;-89
2021/10/31 09:43:30;;;;;;;0.08;0.08;;;;;;;;;;5041121;28;20400;-87
2021/10/31 09:45:57;;;;;;;0.00;0.00;;;;;;;;;;5041357;28;20065;-90
2021/10/31 09:48:23;;;;;;;0.00;0.00;;;;;;;;;;5040585;28;20032;-90
2021/10/31 09:50:50;;;;;;;0.00;0.00;;;;;;;;;;5042408;28;20112;-89
2021/10/31 09:53:17;;;;;;;0.20;0.20;;;;;;;;;;5042437;28;20247;-88
2021/10/31 09:55:43;;;;;;;0.00;0.00;;;;;;;;;;5044348;28;20025;-89
2021/10/31 09:58:18;;;;;;;0.00;0.00;;;;;;;;;;5043554;28;20563;-89
2021/10/31 10:00:46;;;;;;;0.00;0.00;;;;;;;;;;5042758;28;20036;-89
2021/10/31 10:06:10;;;;;;;0.22;0.22;;;;;;;;;;5042201;28;20021;-89
2021/10/31 10:08:36;;;;;;;0.60;0.52;;;;;;;;;;5040682;28;20091;-88
2021/10/31 10:11:02;;;;;;;0.00;0.00;;;;;;;;;;5042224;28;20055;-87
2021/10/31 10:13:30;;;;;;;0.10;0.10;;;;;;;;;;5041996;28;20068;-89
2021/10/31 10:16:14;;;;;;;1.95;0.73;;;;;;;;;;5041371;28;20112;-86
2021/10/31 10:18:40;;;;;;;0.10;0.10;;;;;;;;;;5040167;28;20029;-87
2021/10/31 10:21:16;;;;;;;0.38;0.35;;;;;;;;;;5041138;28;20102;-87
2021/10/31 10:23:50;;;;;;;0.00;0.00;;;;;;;;;;5041719;28;20769;-87
2021/10/31 10:26:24;;;;;;;0.00;0.00;;;;;;;;;;5038659;28;20029;-87
2021/10/31 10:28:50;;;;;;;0.08;0.08;;;;;;;;;;5040806;28;20462;-86
2021/10/31 10:31:24;;;;;;;0.00;0.00;;;;;;;;;;5042360;28;20757;-87
2021/10/31 10:33:52;;;;;;;8.38;1.30;;;;;;;;;;5041026;28;20528;-87
2021/10/31 10:36:20;;;;;;;0.00;0.00;;;;;;;;;;5043688;28;20047;-87
2021/10/31 10:39:05;;;;;;;0.47;0.47;;;;;;;;;;5045355;28;20029;-87
2021/10/31 10:41:44;;;;;;;0.00;0.00;;;;;;;;;;5040842;28;20021;-87
2021/10/31 10:44:19;;;;;;;0.10;0.10;;;;;;;;;;5043424;28;20617;-88
2021/10/31 10:46:45;;;;;;;0.22;0.22;;;;;;;;;;5066252;28;20056;-87
2021/10/31 10:49:16;;;;;;;0.13;0.13;;;;;;;;;;5058974;28;20033;-87
2021/10/31 10:51:43;;;;;;;0.00;0.00;;;;;;;;;;5059178;28;20113;-89
2021/10/31 10:54:10;;;;;;;15.77;1.25;;;;;;;;;;5051336;28;20037;-88
2021/10/31 10:56:36;;;;;;;1.50;0.35;;;;;;;;;;5045160;28;20709;-88
2021/10/31 10:59:02;;;;;;;0.13;0.13;;;;;;;;;;5045564;28;20032;-88
2021/10/31 11:01:28;;;;;;;0.05;0.05;;;;;;;;;;5047287;28;20061;-88
2021/10/31 11:03:54;;;;;;;0.10;0.10;;;;;;;;;;5045044;28;20041;-89
2021/10/31 11:06:26;;;;;;;0.00;0.00;;;;;;;;;;5049701;28;20047;-89
2021/10/31 11:09:12;;;;;;;0.45;0.03;;;;;;;;;;5069027;28;20041;-88
2021/10/31 11:11:38;;;;;;;0.00;0.00;;;;;;;;;;5042518;28;20037;-88
2021/10/31 11:14:04;;;;;;;0.52;0.30;;;;;;;;;;5043296;28;20036;-89
2021/10/31 11:16:30;;;;;;;0.08;0.08;;;;;;;;;;5047270;28;20135;-89
2021/10/31 11:18:56;;;;;;;0.00;0.00;;;;;;;;;;5061392;28;20509;-89
2021/10/31 11:21:23;;;;;;;0.10;0.10;;;;;;;;;;5065686;28;20552;-87
2021/10/31 11:23:50;;;;;;;0.22;0.13;;;;;;;;;;5044517;28;20039;-87
2021/10/31 11:26:21;;;;;;;0.10;0.10;;;;;;;;;;5048208;28;20063;-87
2021/10/31 11:28:48;;;;;;;0.00;0.00;;;;;;;;;;5049156;28;20033;-86
2021/10/31 11:31:15;;;;;;;0.00;0.00;;;;;;;;;;5043531;28;20542;-86
2021/10/31 11:33:41;;;;;;;1.27;0.32;;;;;;;;;;5044464;28;20044;-88
2021/10/31 11:36:07;;;;;;;0.05;0.05;;;;;;;;;;5048357;28;20462;-88
2021/10/31 11:38:35;;;;;;;0.38;0.38;;;;;;;;;;5046090;28;20067;-89
2021/10/31 11:41:08;;;;;;;0.00;0.00;;;;;;;;;;5041895;28;20033;-86
2021/10/31 11:43:35;;;;;;;0.00;0.00;;;;;;;;;;5048458;28;20112;-85
2021/10/31 11:46:01;;;;;;;0.00;0.00;;;;;;;;;;5050678;28;20048;-86
2021/10/31 11:48:27;;;;;;;;;;;;;;;;;;5052274;28;20044;-90
2021/10/31 11:50:59;;;;;;;0.00;0.00;;;;;;;;;;5053469;28;19912;-88
2021/10/31 11:53:26;;;;;;;0.00;0.00;;;;;;;;;;5053845;28;20052;-88
2021/10/31 11:55:54;;;;;;;0.08;0.08;;;;;;;;;;5052387;28;20125;-89
2021/10/31 11:58:33;;;;;;;0.00;0.00;;;;;;;;;;5043756;28;20520;-89
2021/10/31 12:01:00;;;;;;;1.02;0.43;;;;;;;;;;5043378;28;20036;-88
2021/10/31 12:03:26;;;;;;;;;;;;;;;;;;5042221;28;20041;-88
2021/10/31 12:05:54;;;;;;;0.00;0.00;;;;;;;;;;5043293;28;19912;-89
2021/10/31 12:08:39;;;;;;;0.17;0.17;;;;;;;;;;5041565;28;20017;-90
2021/10/31 12:11:05;;;;;;;0.35;0.35;;;;;;;;;;5044653;28;20059;-89
2021/10/31 12:13:39;;;;;;;0.35;0.35;;;;;;;;;;5043964;28;20041;-88
2021/10/31 12:16:13;;;;;;;0.00;0.00;;;;;;;;;;5040653;28;20052;-88
2021/10/31 12:18:42;;;;;;;0.00;0.00;;;;;;;;;;5045074;28;20037;-88
2021/10/31 12:21:24;;;;;;;0.00;0.00;;;;;;;;;;5050804;28;20175;-89
2021/10/31 12:24:01;;;;;;;0.10;0.10;;;;;;;;;;5043464;28;20400;-88
2021/10/31 12:26:33;;;;;;;0.38;0.15;;;;;;;;;;5049054;28;21706;-89
2021/10/31 12:29:12;;;;;;;0.32;0.20;;;;;;;;;;5051599;28;20501;-88
2021/10/31 12:31:39;;;;;;;0.00;0.00;;;;;;;;;;5079511;28;20024;-88
2021/10/31 12:34:05;;;;;;;0.32;0.32;;;;;;;;;;5067262;28;20681;-88
2021/10/31 12:36:32;;;;;;;0.52;0.50;;;;;;;;;;5071547;28;20086;-89
2021/10/31 12:38:58;;;;;;;0.00;0.00;;;;;;;;;;5055865;28;20123;-88
2021/10/31 12:41:26;;;;;;;0.03;0.03;;;;;;;;;;5073034;28;20079;-88
2021/10/31 12:43:57;;;;;;;0.00;0.00;;;;;;;;;;5073543;28;20115;-88
2021/10/31 12:46:26;;;;;;;0.00;0.00;;;;;;;;;;5059280;28;20043;-88
2021/10/31 12:48:54;;;;;;;0.00;0.00;;;;;;;;;;5071425;28;20744;-88
2021/10/31 12:51:43;;;;;;;0.00;0.00;;;;;;;;;;5069094;28;20515;-88
2021/10/31 12:54:20;;;;;;;0.30;0.20;;;;;;;;;;5069990;28;20135;-89
2021/10/31 12:56:46;;;;;;;0.00;0.00;;;;;;;;;;5058156;28;20040;-88
2021/10/31 12:59:16;;;;;;;0.00;0.00;;;;;;;;;;5053808;28;20353;-88
2021/10/31 13:01:42;;;;;;;0.00;0.00;;;;;;;;;;5066031;28;20246;-88
2021/10/31 13:04:08;;;;;;;0.20;0.20;;;;;;;;;;5040515;28;20194;-88
2021/10/31 13:06:53;;;;;;;0.13;0.13;;;;;;;;;;5041483;28;20041;-88
2021/10/31 13:09:20;;;;;;;0.40;0.40;;;;;;;;;;5041211;28;20033;-89
2021/10/31 13:11:46;;;;;;;0.00;0.00;;;;;;;;;;5041269;28;20036;-87
2021/10/31 13:14:32;;;;;;;0.38;0.38;;;;;;;;;;5041205;28;20095;-87
2021/10/31 13:17:08;;;;;;;0.20;0.17;;;;;;;;;;5041577;28;20209;-87
2021/10/31 13:19:35;;;;;;;0.30;0.30;;;;;;;;;;5039223;28;20534;-87
2021/10/31 13:22:03;;;;;;;0.52;0.25;;;;;;;;;;5054425;28;20025;-87
2021/10/31 13:24:31;;;;;;;0.00;0.00;;;;;;;;;;5040874;28;20033;-87
2021/10/31 13:26:58;;;;;;;0.10;0.03;;;;;;;;;;5040718;28;20028;-88
2021/10/31 13:29:43;;;;;;;0.08;0.08;;;;;;;;;;5045828;28;20029;-87
2021/10/31 13:32:13;;;;;;;0.00;0.00;;;;;;;;;;5041282;28;20852;-87
2021/10/31 13:34:40;;;;;;;0.10;0.10;;;;;;;;;;5040084;28;20040;-87
2021/10/31 13:37:07;;;;;;;1.70;0.22;;;;;;;;;;5040783;28;20029;-88
2021/10/31 13:39:33;;;;;;;0.00;0.00;;;;;;;;;;5042655;28;20075;-87
2021/10/31 13:42:00;;;;;;;0.00;0.00;;;;;;;;;;5040478;28;20036;-87
2021/10/31 13:44:27;;;;;;;0.22;0.22;;;;;;;;;;5038453;28;20317;-87
2021/10/31 13:47:02;;;;;;;0.47;0.15;;;;;;;;;;5054879;28;20149;-87
2021/10/31 13:49:30;;;;;;;0.10;0.10;;;;;;;;;;5058694;28;20495;-87
2021/10/31 13:51:58;;;;;;;0.00;0.00;;;;;;;;;;5066130;28;20044;-88
2021/10/31 13:54:24;;;;;;;0.00;0.00;;;;;;;;;;5047580;28;20496;-88
2021/10/31 13:56:50;;;;;;;0.00;0.00;;;;;;;;;;5045765;28;20086;-88
2021/10/31 13:59:17;;;;;;;2.72;0.17;;;;;;;;;;5052751;28;20195;-88
2021/10/31 14:01:44;;;;;;;0.13;0.13;;;;;;;;;;5046927;28;20079;-84
2021/10/31 14:04:30;;;;;;;0.00;0.00;;;;;;;;;;5044985;28;20124;-85
2021/10/31 14:07:11;;;;;;;0.00;0.00;;;;;;;;;;5045719;28;20036;-83
2021/10/31 14:09:47;;;;;;;0.00;0.00;;;;;;;;;;5046149;28;20049;-84
2021/10/31 14:12:13;;;;;;;;;;;;;;;;;;5052602;28;20047;-82
2021/10/31 14:14:41;;;;;;;0.00;0.00;;;;;;;;;;5049166;28;19916;-85
2021/10/31 14:17:10;;;;;;;0.03;0.03;;;;;;;;;;5054433;28;20525;-86
2021/10/31 14:19:36;;;;;;;0.13;0.13;;;;;;;;;;5046107;28;20029;-85
2021/10/31 14:22:03;;;;;;;0.10;0.10;;;;;;;;;;5046054;28;20975;-85
2021/10/31 14:24:29;;;;;;;0.00;0.00;;;;;;;;;;5045597;28;20039;-85
2021/10/31 14:26:56;;;;;;;0.20;0.20;;;;;;;;;;5045717;28;20021;-84
2021/10/31 14:29:22;;;;;;;;;;;;;;;;;;5046037;28;20052;-85
2021/10/31 14:31:50;;;;;;;0.00;0.00;;;;;;;;;;5047454;28;19963;-84
2021/10/31 14:34:16;;;;;;;0.68;0.28;;;;;;;;;;5045724;28;20068;-84
2021/10/31 14:36:42;;;;;;;0.10;0.10;;;;;;;;;;5045407;28;20108;-84
2021/10/31 14:39:10;;;;;;;0.00;0.00;;;;;;;;;;5045285;28;20052;-84
2021/10/31 14:41:37;;;;;;;0.00;0.00;;;;;;;;;;5045395;28;20025;-85
2021/10/31 14:44:04;;;;;;;2.90;0.93;;;;;;;;;;5045563;28;20119;-85
2021/10/31 14:46:34;;;;;;;0.00;0.00;;;;;;;;;;5062376;28;20048;-85
2021/10/31 14:49:08;;;;;;;0.22;0.20;;;;;;;;;;5045446;28;20160;-85
2021/10/31 14:51:40;;;;;;;0.65;0.20;;;;;;;;;;5045338;28;20021;-85
2021/10/31 14:54:07;;;;;;;1.55;0.20;;;;;;;;;;5044834;28;20043;-84